Time;durP1;ratioP1;P1;durP2;ratioP2;P2;SDS_P1;SDS_P2;PMS_P1;PMS_P2;Temp;Humidity;BMP_temperature;BMP_pressure;BME280_temperature;BME280_humidity;BME280_pressure;Samples;Min_cycle;Max_cycle;Signal;HPM_P1;HPM_P2
2022/04/01 00:00:24;;;;;;;3.27;2.73;;;3.90;58.00;;;;;;5116737;28;20043;-73
2022/04/01 00:02:51;;;;;;;4.57;2.77;;;3.80;58.20;;;;;;5104583;28;20044;-73
2022/04/01 00:05:17;;;;;;;4.47;3.03;;;3.80;58.50;;;;;;5114931;28;20052;-73
2022/04/01 00:07:44;;;;;;;3.83;3.37;;;3.80;58.80;;;;;;5112950;28;20070;-74
2022/04/01 00:10:11;;;;;;;2.60;2.40;;;3.70;59.00;;;;;;5109765;28;20409;-74
2022/04/01 00:12:44;;;;;;;4.00;3.10;;;3.70;59.20;;;;;;5116685;28;20092;-73
2022/04/01 00:15:12;;;;;;;2.93;2.67;;;3.60;59.20;;;;;;5105293;28;20101;-73
2022/04/01 00:17:39;;;;;;;3.83;2.70;;;3.60;59.40;;;;;;5102406;28;20677;-73
2022/04/01 00:20:07;;;;;;;2.50;1.73;;;3.60;59.40;;;;;;5096070;28;20048;-73
2022/04/01 00:22:33;;;;;;;4.17;2.40;;;3.50;59.40;;;;;;5096218;28;20052;-73
2022/04/01 00:25:00;;;;;;;9.47;2.47;;;3.50;59.60;;;;;;5097224;28;20089;-74
2022/04/01 00:27:26;;;;;;;4.27;2.50;;;3.50;59.70;;;;;;5096088;28;20070;-73
2022/04/01 00:29:54;;;;;;;4.60;3.80;;;3.40;59.80;;;;;;5095484;28;20078;-73
2022/04/01 00:32:22;;;;;;;7.17;3.00;;;3.40;60.00;;;;;;5096025;28;20374;-73
2022/04/01 00:34:49;;;;;;;4.87;2.47;;;3.30;60.10;;;;;;5100192;28;20050;-73
2022/04/01 00:37:16;;;;;;;2.10;1.87;;;3.40;60.50;;;;;;5098213;28;20044;-74
2022/04/01 00:39:43;;;;;;;2.63;2.43;;;3.30;60.40;;;;;;5106972;28;20126;-73
2022/04/01 00:42:09;;;;;;;1.97;1.80;;;3.30;60.30;;;;;;5116221;28;20055;-73
2022/04/01 00:44:38;;;;;;;2.00;1.90;;;3.20;60.30;;;;;;5116379;28;20105;-73
2022/04/01 00:47:09;;;;;;;3.60;2.00;;;3.20;60.70;;;;;;5113856;28;20069;-73
2022/04/01 00:49:37;;;;;;;2.63;1.77;;;3.20;60.50;;;;;;5107983;28;20040;-73
2022/04/01 00:52:05;;;;;;;10.80;2.13;;;3.10;60.70;;;;;;5095516;28;20084;-74
2022/04/01 00:54:34;;;;;;;2.70;1.97;;;3.10;60.70;;;;;;5095329;28;20084;-73
2022/04/01 00:57:02;;;;;;;3.13;2.00;;;3.00;60.70;;;;;;5096519;28;20051;-74
2022/04/01 00:59:28;;;;;;;4.10;2.43;;;3.00;60.90;;;;;;5096085;28;20057;-74
2022/04/01 01:01:55;;;;;;;2.37;2.13;;;3.00;61.20;;;;;;5108929;28;20109;-74
2022/04/01 01:04:24;;;;;;;2.03;1.93;;;2.90;61.20;;;;;;5115913;28;20083;-74
2022/04/01 01:06:54;;;;;;;1.63;1.53;;;2.90;61.20;;;;;;5115704;28;20043;-74
2022/04/01 01:09:23;;;;;;;4.23;1.93;;;2.90;61.40;;;;;;5096514;28;20048;-73
2022/04/01 01:11:51;;;;;;;2.10;1.93;;;2.90;61.50;;;;;;5094928;28;20501;-74
2022/04/01 01:14:26;;;;;;;2.90;2.60;;;2.90;61.50;;;;;;5095668;28;20457;-73
2022/04/01 01:16:53;;;;;;;1.93;1.33;;;2.90;61.40;;;;;;5095063;28;20128;-73
2022/04/01 01:19:21;;;;;;;4.40;2.10;;;2.80;61.40;;;;;;5107625;28;20055;-73
2022/04/01 01:21:52;;;;;;;5.33;1.90;;;2.80;61.50;;;;;;5114419;28;20476;-74
2022/04/01 01:24:36;;;;;;;10.57;2.05;;;2.80;61.80;;;;;;5114991;28;20489;-73
2022/04/01 01:27:06;;;;;;;1.73;1.63;;;2.80;61.80;;;;;;5101323;28;20043;-73
2022/04/01 01:29:33;;;;;;;6.03;2.13;;;2.80;62.00;;;;;;5097434;28;20043;-73
2022/04/01 01:32:02;;;;;;;3.00;2.40;;;2.80;62.00;;;;;;5094539;28;20119;-75
2022/04/01 01:34:32;;;;;;;3.47;2.57;;;2.70;61.80;;;;;;5094901;28;20081;-74
2022/04/01 01:36:59;;;;;;;2.73;2.47;;;2.70;61.90;;;;;;5094410;28;20451;-73
2022/04/01 01:39:26;;;;;;;4.13;2.13;;;2.70;61.90;;;;;;5096178;28;20482;-74
2022/04/01 01:41:54;;;;;;;3.13;2.57;;;2.60;61.90;;;;;;5114297;28;20043;-74
2022/04/01 01:44:23;;;;;;;3.30;1.77;;;2.60;62.00;;;;;;5114881;28;20104;-73
2022/04/01 01:46:51;;;;;;;2.70;2.00;;;2.60;62.00;;;;;;5114933;28;20048;-73
2022/04/01 01:49:20;;;;;;;3.90;2.50;;;2.60;62.00;;;;;;5114871;28;20150;-73
2022/04/01 01:54:49;;;;;;;2.27;1.53;;;2.60;62.20;;;;;;5094366;28;20101;-73
2022/04/01 01:57:18;;;;;;;13.33;3.20;;;2.60;62.40;;;;;;5107112;28;20062;-73
2022/04/01 01:59:45;;;;;;;2.07;1.97;;;2.50;62.20;;;;;;5114397;28;20394;-73
2022/04/01 02:02:12;;;;;;;3.13;2.83;;;2.50;62.40;;;;;;5098822;28;20044;-73
2022/04/01 02:04:40;;;;;;;2.83;2.10;;;2.50;62.30;;;;;;5094089;28;20056;-73
2022/04/01 02:07:08;;;;;;;7.20;3.00;;;2.50;62.60;;;;;;5094253;28;20448;-74
2022/04/01 02:09:34;;;;;;;2.67;2.47;;;2.50;62.40;;;;;;5099329;28;20067;-74
2022/04/01 02:12:01;;;;;;;4.87;2.80;;;2.50;62.60;;;;;;5103588;28;20447;-74
2022/04/01 02:14:30;;;;;;;1.37;1.27;;;2.40;62.60;;;;;;5094025;28;20078;-74
2022/04/01 02:16:57;;;;;;;3.83;2.27;;;2.40;62.70;;;;;;5093998;28;20046;-74
2022/04/01 02:19:24;;;;;;;2.50;2.23;;;2.40;62.60;;;;;;5107940;28;20039;-74
2022/04/01 02:21:52;;;;;;;2.43;2.23;;;2.40;62.60;;;;;;5112502;28;20451;-73
2022/04/01 02:24:20;;;;;;;4.10;2.47;;;2.40;62.80;;;;;;5114174;28;20078;-74
2022/04/01 02:26:47;;;;;;;3.53;2.97;;;2.30;62.80;;;;;;5113772;28;20069;-74
2022/04/01 02:29:15;;;;;;;2.00;1.73;;;2.40;63.10;;;;;;5113834;28;20074;-72
2022/04/01 02:31:43;;;;;;;5.57;1.77;;;2.40;63.10;;;;;;5112259;28;20073;-73
2022/04/01 02:34:10;;;;;;;2.33;1.83;;;2.40;63.10;;;;;;5113694;28;20065;-74
2022/04/01 02:36:38;;;;;;;2.63;2.23;;;2.30;63.20;;;;;;5113516;28;20043;-73
2022/04/01 02:39:05;;;;;;;3.50;2.17;;;2.30;63.50;;;;;;5113863;28;20120;-73
2022/04/01 02:41:32;;;;;;;2.50;2.30;;;2.30;63.70;;;;;;5110179;28;20105;-73
2022/04/01 02:44:08;;;;;;;4.50;2.67;;;2.30;63.70;;;;;;5093769;28;20048;-72
2022/04/01 02:46:35;;;;;;;2.87;2.13;;;2.30;63.80;;;;;;5098122;28;20482;-73
2022/04/01 02:49:06;;;;;;;4.03;2.57;;;2.30;63.80;;;;;;5113812;28;20054;-72
2022/04/01 02:51:34;;;;;;;2.90;2.20;;;2.30;64.00;;;;;;5111849;28;20558;-73
2022/04/01 02:54:03;;;;;;;1.90;1.77;;;2.20;64.00;;;;;;5113824;28;20146;-73
2022/04/01 02:56:30;;;;;;;4.37;3.10;;;2.20;64.20;;;;;;5097119;28;20425;-73
2022/04/01 02:58:57;;;;;;;3.13;2.73;;;2.20;64.20;;;;;;5093646;28;20078;-73
2022/04/01 03:01:23;;;;;;;4.90;2.57;;;2.10;64.40;;;;;;5093606;28;20052;-73
2022/04/01 03:03:50;;;;;;;2.97;2.40;;;2.10;64.50;;;;;;5093284;28;20489;-73
2022/04/01 03:06:18;;;;;;;2.80;1.90;;;2.10;64.80;;;;;;5099201;28;20044;-73
2022/04/01 03:08:45;;;;;;;4.63;2.40;;;2.10;64.90;;;;;;5093027;28;20508;-73
2022/04/01 03:11:12;;;;;;;7.07;3.67;;;2.10;65.20;;;;;;5093110;28;20051;-73
2022/04/01 03:13:38;;;;;;;2.97;2.40;;;2.10;65.10;;;;;;5093245;28;20500;-73
2022/04/01 03:16:06;;;;;;;2.97;2.77;;;2.10;65.40;;;;;;5094613;28;20122;-74
2022/04/01 03:18:32;;;;;;;4.37;2.90;;;2.10;65.60;;;;;;5093639;28;20101;-74
2022/04/01 03:20:59;;;;;;;6.93;2.50;;;2.00;65.70;;;;;;5093651;28;20058;-74
2022/04/01 03:23:27;;;;;;;3.67;3.03;;;2.00;65.90;;;;;;5093211;28;20044;-73
2022/04/01 03:25:55;;;;;;;4.87;2.60;;;2.00;65.90;;;;;;5093644;28;20055;-73
2022/04/01 03:28:21;;;;;;;2.87;2.27;;;2.00;65.60;;;;;;5094429;28;20390;-74
2022/04/01 03:30:50;;;;;;;2.40;2.20;;;2.00;65.80;;;;;;5092996;28;20048;-74
2022/04/01 03:33:17;;;;;;;6.93;2.40;;;1.90;65.90;;;;;;5098034;28;20481;-74
2022/04/01 03:35:46;;;;;;;2.63;2.27;;;1.90;65.90;;;;;;5093527;28;20131;-74
2022/04/01 03:38:12;;;;;;;1.70;1.60;;;1.90;66.00;;;;;;5094168;28;20047;-74
2022/04/01 03:40:41;;;;;;;3.00;2.40;;;1.90;66.00;;;;;;5093262;28;20076;-73
2022/04/01 03:43:09;;;;;;;2.77;1.87;;;1.80;66.10;;;;;;5093194;28;20127;-74
2022/04/01 03:45:36;;;;;;;2.90;2.70;;;1.90;66.10;;;;;;5106001;27;20484;-73
2022/04/01 03:48:11;;;;;;;2.73;2.47;;;1.90;66.20;;;;;;5117076;27;20040;-72
2022/04/01 03:50:42;;;;;;;3.83;2.50;;;1.80;66.20;;;;;;5099205;28;20040;-70
2022/04/01 03:53:10;;;;;;;2.75;2.47;;;1.80;66.20;;;;;;5108756;28;20071;-72
2022/04/01 03:55:42;;;;;;;8.47;3.00;;;1.80;66.30;;;;;;5103350;28;20040;-72
2022/04/01 03:58:13;;;;;;;2.33;2.07;;;1.80;66.00;;;;;;5111400;28;20040;-75
2022/04/01 04:00:42;;;;;;;3.17;2.67;;;1.80;66.20;;;;;;5107784;28;20059;-73
2022/04/01 04:03:11;;;;;;;4.47;2.23;;;1.70;66.40;;;;;;5117105;28;20054;-72
2022/04/01 04:05:39;;;;;;;3.30;2.43;;;1.70;66.50;;;;;;5105973;28;20043;-73
2022/04/01 04:08:10;;;;;;;2.37;2.17;;;1.70;66.50;;;;;;5113559;28;20438;-74
2022/04/01 04:10:38;;;;;;;4.25;3.00;;;1.70;66.60;;;;;;5105760;28;20052;-71
2022/04/01 04:13:08;;;;;;;3.27;2.67;;;1.60;66.50;;;;;;5096057;28;20165;-71
2022/04/01 04:15:42;;;;;;;3.23;2.23;;;1.60;66.90;;;;;;5096442;28;20066;-70
2022/04/01 04:18:15;;;;;;;4.53;2.80;;;1.60;66.90;;;;;;5115301;28;20051;-71
2022/04/01 04:20:54;;;;;;;4.40;2.20;;;1.60;67.20;;;;;;5105063;28;20052;-71
2022/04/01 04:23:31;;;;;;;2.30;2.10;;;1.60;67.20;;;;;;5096033;28;20076;-70
2022/04/01 04:26:02;;;;;;;2.67;2.13;;;1.50;67.90;;;;;;5108343;28;20040;-69
2022/04/01 04:28:37;;;;;;;3.13;2.25;;;1.50;67.20;;;;;;5106541;28;20044;-71
2022/04/01 04:31:07;;;;;;;2.73;2.37;;;1.50;67.50;;;;;;5109553;28;20039;-72
2022/04/01 04:33:34;;;;;;;2.07;1.97;;;1.50;67.70;;;;;;5100419;28;20505;-72
2022/04/01 04:36:04;;;;;;;3.03;2.23;;;1.50;67.80;;;;;;5097583;28;20080;-72
2022/04/01 04:38:38;;;;;;;3.73;1.97;;;1.40;67.90;;;;;;5106664;28;20055;-72
2022/04/01 04:41:09;;;;;;;2.43;1.90;;;1.40;67.80;;;;;;5107813;28;20048;-73
2022/04/01 04:43:40;;;;;;;2.45;2.25;;;1.40;68.10;;;;;;5095594;28;20043;-75
2022/04/01 04:46:08;;;;;;;1.47;1.37;;;1.30;69.20;;;;;;5096271;28;20091;-73
2022/04/01 04:48:36;;;;;;;3.37;3.17;;;1.30;68.60;;;;;;5098751;28;20118;-74
2022/04/01 04:51:05;;;;;;;1.83;1.73;;;1.30;68.80;;;;;;5096871;28;20056;-72
2022/04/01 04:53:34;;;;;;;2.83;2.63;;;1.30;68.70;;;;;;5096371;28;20051;-74
2022/04/01 04:56:03;;;;;;;5.10;2.20;;;1.30;68.90;;;;;;5095325;28;20087;-75
2022/04/01 04:58:39;;;;;;;3.20;1.80;;;1.40;69.10;;;;;;5101798;28;20546;-73
2022/04/01 05:01:19;;;;;;;2.93;1.53;;;1.30;69.00;;;;;;5095481;28;20115;-75
2022/04/01 05:04:09;;;;;;;4.43;1.80;;;1.30;68.90;;;;;;5107298;28;20047;-74
2022/04/01 05:06:44;;;;;;;1.27;1.20;;;1.30;69.00;;;;;;5115224;28;20047;-74
2022/04/01 05:09:19;;;;;;;3.10;2.00;;;1.30;69.10;;;;;;5115950;28;20052;-74
2022/04/01 05:11:57;;;;;;;1.43;1.30;;;1.30;69.20;;;;;;5115332;28;20043;-73
2022/04/01 05:14:36;;;;;;;2.47;2.17;;;1.30;69.20;;;;;;5114014;28;20113;-74
2022/04/01 05:17:08;;;;;;;1.70;1.60;;;1.30;69.40;;;;;;5115196;28;20044;-73
2022/04/01 05:19:36;;;;;;;2.20;1.87;;;1.40;69.20;;;;;;5114883;28;20489;-73
2022/04/01 05:22:06;;;;;;;1.97;1.37;;;1.40;69.30;;;;;;5114949;28;20193;-73
2022/04/01 05:24:38;;;;;;;1.73;1.63;;;1.40;69.50;;;;;;5112290;28;20109;-72
2022/04/01 05:27:07;;;;;;;4.20;1.60;;;1.40;69.40;;;;;;5110429;27;20112;-74
2022/04/01 05:29:38;;;;;;;2.47;2.07;;;1.40;69.60;;;;;;5103696;28;20055;-77
2022/04/01 05:32:10;;;;;;;3.53;2.40;;;1.40;69.60;;;;;;5096237;28;20117;-74
2022/04/01 05:34:40;;;;;;;4.32;2.30;;;1.50;69.80;;;;;;5096820;28;20075;-74
2022/04/01 05:37:08;;;;;;;2.43;2.23;;;1.50;69.90;;;;;;5106698;28;20089;-73
2022/04/01 05:39:36;;;;;;;2.30;2.17;;;1.50;69.80;;;;;;5106874;28;20058;-73
2022/04/01 05:42:04;;;;;;;4.07;2.73;;;1.50;69.90;;;;;;5094747;28;20048;-73
2022/04/01 05:44:33;;;;;;;3.93;1.87;;;1.60;70.10;;;;;;5094867;28;20087;-73
2022/04/01 05:47:00;;;;;;;3.07;2.67;;;1.60;70.00;;;;;;5101109;28;20109;-72
2022/04/01 05:49:29;;;;;;;4.63;1.60;;;1.60;70.10;;;;;;5124540;27;20044;-72
2022/04/01 05:51:56;;;;;;;2.17;1.70;;;1.60;70.30;;;;;;5150091;27;20043;-74
2022/04/01 05:54:26;;;;;;;2.20;1.90;;;1.60;70.80;;;;;;5127021;28;20040;-72
2022/04/01 05:56:52;;;;;;;2.43;2.23;;;1.60;71.10;;;;;;5112788;28;20397;-73
2022/04/01 05:59:22;;;;;;;4.77;2.53;;;1.60;71.20;;;;;;5108859;28;20093;-73
2022/04/01 06:02:01;;;;;;;4.07;2.60;;;1.60;71.40;;;;;;5110874;28;20551;-73
2022/04/01 06:04:56;;;;;;;1.87;1.67;;;1.60;71.50;;;;;;5094090;28;20076;-73
2022/04/01 06:07:29;;;;;;;1.80;1.70;;;1.50;71.60;;;;;;5105951;28;20051;-71
2022/04/01 06:10:05;;;;;;;3.63;2.40;;;1.50;72.00;;;;;;5094217;28;20051;-72
2022/04/01 06:12:41;;;;;;;4.47;2.17;;;1.50;72.30;;;;;;5104043;28;20076;-72
2022/04/01 06:15:17;;;;;;;1.83;1.60;;;1.50;72.50;;;;;;5113994;28;20081;-74
2022/04/01 06:18:05;;;;;;;2.03;1.80;;;1.50;72.70;;;;;;5113813;28;20079;-74
2022/04/01 06:20:34;;;;;;;2.83;2.10;;;1.50;72.80;;;;;;5092933;28;20040;-75
2022/04/01 06:23:06;;;;;;;4.10;2.10;;;1.50;72.80;;;;;;5104876;28;20040;-73
2022/04/01 06:25:41;;;;;;;5.83;1.30;;;1.60;73.00;;;;;;5099299;28;20146;-73
2022/04/01 06:28:16;;;;;;;4.03;2.10;;;1.60;73.00;;;;;;5108672;28;20051;-74
2022/04/01 06:30:45;;;;;;;1.47;1.40;;;1.70;72.90;;;;;;5064131;28;20053;-73
2022/04/01 06:33:21;;;;;;;4.37;1.77;;;1.70;72.70;;;;;;5069413;28;20049;-72
2022/04/01 06:35:56;;;;;;;3.07;1.30;;;1.80;72.90;;;;;;5059012;28;20376;-75
2022/04/01 06:38:32;;;;;;;1.23;1.23;;;1.80;72.90;;;;;;5053961;28;20079;-75
2022/04/01 06:41:05;;;;;;;1.50;1.40;;;1.90;72.90;;;;;;5065234;28;20052;-73
2022/04/01 06:43:31;;;;;;;2.73;1.80;;;2.00;72.50;;;;;;5061492;28;20114;-75
2022/04/01 06:45:58;;;;;;;2.50;2.17;;;2.00;72.10;;;;;;5067155;28;20080;-75
2022/04/01 06:48:25;;;;;;;2.77;2.30;;;2.00;72.10;;;;;;5052824;28;20123;-75
2022/04/01 06:50:54;;;;;;;4.00;2.53;;;2.00;72.10;;;;;;5059314;28;20045;-74
2022/04/01 06:53:21;;;;;;;1.57;1.37;;;2.20;72.10;;;;;;5053248;28;20076;-74
2022/04/01 06:55:48;;;;;;;3.57;2.20;;;2.30;71.50;;;;;;5054740;28;20422;-75
2022/04/01 06:58:15;;;;;;;2.03;1.53;;;2.40;71.00;;;;;;5054352;28;20084;-74
2022/04/01 07:00:42;;;;;;;4.17;2.03;;;2.50;70.40;;;;;;5055245;28;20095;-75
2022/04/01 07:03:09;;;;;;;1.57;1.43;;;2.50;69.90;;;;;;5064616;28;20147;-74
2022/04/01 07:05:37;;;;;;;1.70;1.60;;;2.60;69.70;;;;;;5067948;28;20074;-75
2022/04/01 07:08:06;;;;;;;2.40;1.87;;;2.80;69.70;;;;;;5061564;28;20486;-73
2022/04/01 07:10:33;;;;;;;2.20;2.00;;;2.80;69.00;;;;;;5061763;28;20045;-73
2022/04/01 07:13:00;;;;;;;5.30;2.60;;;2.80;69.10;;;;;;5060283;28;20053;-74
2022/04/01 07:15:27;;;;;;;2.43;1.03;;;2.90;68.80;;;;;;5061310;28;20049;-74
2022/04/01 07:17:54;;;;;;;1.93;1.10;;;2.80;68.50;;;;;;5068655;28;20056;-73
2022/04/01 07:20:21;;;;;;;2.23;2.03;;;2.80;68.50;;;;;;5074638;28;20053;-74
2022/04/01 07:22:48;;;;;;;3.20;2.17;;;2.90;68.50;;;;;;5060016;28;20051;-74
2022/04/01 07:25:16;;;;;;;2.10;1.90;;;3.10;68.40;;;;;;5058422;28;20084;-73
2022/04/01 07:27:42;;;;;;;2.30;2.07;;;3.20;67.60;;;;;;5071642;28;20143;-73
2022/04/01 07:30:09;;;;;;;7.43;2.33;;;3.40;67.40;;;;;;5108869;28;20040;-73
2022/04/01 07:32:39;;;;;;;3.80;1.50;;;3.50;66.80;;;;;;5116488;28;20079;-72
2022/04/01 07:35:09;;;;;;;2.63;1.83;;;3.70;66.80;;;;;;5099651;28;20051;-74
2022/04/01 07:37:36;;;;;;;2.40;1.50;;;3.90;66.10;;;;;;5099129;28;20044;-74
2022/04/01 07:40:04;;;;;;;3.87;2.67;;;4.00;65.30;;;;;;5118614;28;20089;-74
2022/04/01 07:42:34;;;;;;;2.13;1.77;;;4.10;64.60;;;;;;5114213;28;20044;-74
2022/04/01 07:45:01;;;;;;;4.33;1.90;;;4.20;64.40;;;;;;5117361;28;20075;-72
2022/04/01 07:47:28;;;;;;;4.20;1.87;;;4.40;64.20;;;;;;5102551;28;20481;-74
2022/04/01 07:49:54;;;;;;;1.70;1.60;;;4.70;63.50;;;;;;5113221;28;20126;-74
2022/04/01 07:52:23;;;;;;;4.10;2.20;;;4.90;62.00;;;;;;5102812;28;20036;-74
2022/04/01 07:54:51;;;;;;;13.93;2.53;;;5.00;61.40;;;;;;5097384;28;20048;-72
2022/04/01 07:57:19;;;;;;;3.97;2.10;;;5.20;61.20;;;;;;5098639;28;20097;-70
2022/04/01 07:59:47;;;;;;;2.97;2.30;;;5.50;60.40;;;;;;5106296;28;20105;-73
2022/04/01 08:02:14;;;;;;;6.53;2.20;;;5.60;59.00;;;;;;5116137;28;20044;-72
2022/04/01 08:04:41;;;;;;;1.90;1.67;;;5.50;58.50;;;;;;5117436;28;20105;-73
2022/04/01 08:07:08;;;;;;;2.50;1.70;;;5.50;58.70;;;;;;5117342;28;20073;-74
2022/04/01 08:09:35;;;;;;;3.20;1.87;;;5.80;58.70;;;;;;5105881;28;20044;-74
2022/04/01 08:12:02;;;;;;;3.17;1.73;;;6.10;57.80;;;;;;5096549;28;20044;-73
2022/04/01 08:14:29;;;;;;;3.40;2.57;;;6.20;57.20;;;;;;5107062;28;20050;-73
2022/04/01 08:16:57;;;;;;;1.43;1.33;;;6.50;56.40;;;;;;5116279;28;20127;-75
2022/04/01 08:19:24;;;;;;;1.93;1.33;;;6.40;55.70;;;;;;5105029;28;20098;-73
2022/04/01 08:21:52;;;;;;;3.80;1.20;;;6.20;55.00;;;;;;5113355;28;20069;-74
2022/04/01 08:24:19;;;;;;;4.40;1.60;;;6.30;55.00;;;;;;5111512;28;20442;-74
2022/04/01 08:26:47;;;;;;;9.20;1.63;;;6.50;54.70;;;;;;5116627;28;20106;-73
2022/04/01 08:29:15;;;;;;;2.63;2.10;;;6.70;54.70;;;;;;5115018;28;20128;-73
2022/04/01 08:31:42;;;;;;;2.17;1.50;;;7.10;54.70;;;;;;5113368;28;20135;-73
2022/04/01 08:34:12;;;;;;;2.00;1.77;;;6.70;53.10;;;;;;5114196;28;20051;-73
2022/04/01 08:36:39;;;;;;;3.07;1.73;;;6.80;53.60;;;;;;5110921;27;20046;-73
2022/04/01 08:39:07;;;;;;;4.07;1.83;;;7.30;53.50;;;;;;5125013;27;20047;-74
2022/04/01 08:41:34;;;;;;;1.63;1.53;;;7.60;52.60;;;;;;5096361;28;20127;-73
2022/04/01 08:44:03;;;;;;;7.07;1.43;;;7.70;51.80;;;;;;5100168;28;20100;-75
2022/04/01 08:46:30;;;;;;;2.10;1.87;;;7.80;50.60;;;;;;5098701;28;20047;-74
2022/04/01 08:48:57;;;;;;;2.07;1.70;;;7.60;50.00;;;;;;5095462;28;20428;-74
2022/04/01 08:51:27;;;;;;;6.17;1.37;;;7.50;50.00;;;;;;5096796;28;20117;-74
2022/04/01 08:53:53;;;;;;;3.40;2.03;;;7.40;50.00;;;;;;5115473;28;20044;-74
2022/04/01 08:56:21;;;;;;;5.17;1.63;;;7.40;50.60;;;;;;5114864;28;20051;-76
2022/04/01 08:58:48;;;;;;;3.03;1.87;;;7.50;50.50;;;;;;5113808;28;20071;-74
2022/04/01 09:01:16;;;;;;;2.60;1.63;;;7.70;49.30;;;;;;5111533;28;20516;-75
2022/04/01 09:03:43;;;;;;;1.60;1.50;;;8.10;49.70;;;;;;5095878;28;20080;-73
2022/04/01 09:06:11;;;;;;;3.80;1.80;;;8.50;49.00;;;;;;5095642;28;20092;-73
2022/04/01 09:08:43;;;;;;;1.73;1.63;;;8.90;47.80;;;;;;5095621;28;20106;-71
2022/04/01 09:11:12;;;;;;;8.23;1.60;;;8.70;46.90;;;;;;5096162;28;20036;-73
2022/04/01 09:13:52;;;;;;;3.47;1.80;;;8.70;46.80;;;;;;5111403;28;20039;-73
2022/04/01 09:16:31;;;;;;;3.03;1.63;;;8.50;46.50;;;;;;5094864;28;20444;-72
2022/04/01 09:18:59;;;;;;;10.77;2.10;;;8.50;46.40;;;;;;5096634;28;20055;-75
2022/04/01 09:21:27;;;;;;;2.73;1.90;;;8.70;46.50;;;;;;5095457;28;20424;-74
2022/04/01 09:23:56;;;;;;;3.55;1.63;;;9.10;46.40;;;;;;5115339;28;20043;-72
2022/04/01 09:26:29;;;;;;;3.50;1.90;;;9.20;45.80;;;;;;5098001;28;20044;-72
2022/04/01 09:28:56;;;;;;;4.78;1.95;;;9.20;46.00;;;;;;5094604;28;20501;-74
2022/04/01 09:31:25;;;;;;;5.05;1.73;;;9.40;45.90;;;;;;5110441;28;20092;-73
2022/04/01 09:33:54;;;;;;;3.78;2.35;;;9.40;45.00;;;;;;5102941;28;20131;-75
2022/04/01 09:36:24;;;;;;;1.63;1.52;;;9.30;44.70;;;;;;5106592;28;20044;-74
2022/04/01 09:38:58;;;;;;;2.15;1.60;;;9.50;44.90;;;;;;5114880;28;20044;-75
2022/04/01 09:41:33;;;;;;;3.63;2.38;;;9.30;44.50;;;;;;5109878;28;20040;-74
2022/04/01 09:44:07;;;;;;;2.00;1.40;;;9.20;45.10;;;;;;5108309;28;20137;-72
2022/04/01 09:46:35;;;;;;;6.47;2.22;;;9.40;45.10;;;;;;5107923;28;20040;-74
2022/04/01 09:49:01;;;;;;;1.67;1.50;;;9.50;44.70;;;;;;5113193;28;20048;-73
2022/04/01 09:51:31;;;;;;;2.03;1.57;;;9.30;44.20;;;;;;5112834;28;20040;-72
2022/04/01 09:54:04;;;;;;;4.70;1.70;;;9.10;44.20;;;;;;5114886;28;20097;-73
2022/04/01 09:56:39;;;;;;;2.28;1.52;;;9.40;44.80;;;;;;5114408;28;20039;-72
2022/04/01 09:59:07;;;;;;;3.00;1.63;;;9.60;44.00;;;;;;5112843;28;20083;-72
2022/04/01 10:01:35;;;;;;;3.72;1.80;;;9.40;44.00;;;;;;5113822;28;20543;-73
2022/04/01 10:04:02;;;;;;;2.05;1.80;;;9.50;44.30;;;;;;5114349;28;20047;-73
2022/04/01 10:06:31;;;;;;;2.70;2.15;;;9.60;44.40;;;;;;5113917;28;20075;-73
2022/04/01 10:09:02;;;;;;;6.20;1.40;;;9.60;43.80;;;;;;5110975;28;20523;-72
2022/04/01 10:11:29;;;;;;;2.28;1.15;;;9.40;43.30;;;;;;5093991;28;20040;-73
2022/04/01 10:14:01;;;;;;;2.03;1.83;;;9.50;43.80;;;;;;5101204;28;20413;-73
2022/04/01 10:16:28;;;;;;;2.55;2.15;;;10.10;43.90;;;;;;5114200;28;20485;-72
2022/04/01 10:18:57;;;;;;;2.80;1.30;;;10.50;43.30;;;;;;5112813;28;20105;-72
2022/04/01 10:21:24;;;;;;;2.13;1.63;;;10.80;42.00;;;;;;5114814;28;20108;-73
2022/04/01 10:23:59;;;;;;;4.95;2.05;;;10.40;41.40;;;;;;5114421;28;20086;-73
2022/04/01 10:26:32;;;;;;;1.98;1.52;;;10.50;41.30;;;;;;5130835;28;20071;-72
2022/04/01 10:28:59;;;;;;;8.32;1.90;;;10.90;41.30;;;;;;5127415;28;20039;-72
2022/04/01 10:31:26;;;;;;;5.63;2.08;;;11.20;41.00;;;;;;5128007;28;20039;-73
2022/04/01 10:33:53;;;;;;;1.40;1.30;;;11.20;40.00;;;;;;5113720;28;20074;-73
2022/04/01 10:36:31;;;;;;;4.78;2.38;;;11.30;39.30;;;;;;5093551;28;20438;-72
2022/04/01 10:39:00;;;;;;;3.53;1.05;;;11.70;38.90;;;;;;5093615;28;20383;-73
2022/04/01 10:41:28;;;;;;;1.75;1.40;;;12.00;38.80;;;;;;5097984;28;20562;-72
2022/04/01 10:43:56;;;;;;;5.00;1.83;;;12.30;37.40;;;;;;5113428;28;20048;-73
2022/04/01 10:46:22;;;;;;;2.60;1.52;;;12.20;37.70;;;;;;5109765;28;20035;-73
2022/04/01 10:52:05;;;;;;;4.13;1.67;;;12.80;36.70;;;;;;5093234;28;20059;-73
2022/04/01 10:54:44;;;;;;;2.75;2.47;;;13.10;36.60;;;;;;5093009;28;20082;-72
2022/04/01 10:57:15;;;;;;;1.58;1.30;;;12.50;35.50;;;;;;5094163;28;20420;-73
2022/04/01 10:59:43;;;;;;;1.60;1.43;;;12.70;36.00;;;;;;5107449;28;20043;-73
2022/04/01 11:02:13;;;;;;;2.10;1.60;;;13.60;35.90;;;;;;5113040;28;20054;-73
2022/04/01 11:04:41;;;;;;;3.08;2.17;;;14.40;35.10;;;;;;5104651;28;20457;-73
2022/04/01 11:07:11;;;;;;;7.78;1.30;;;14.70;34.10;;;;;;5100675;28;20047;-75
2022/04/01 11:09:50;;;;;;;2.20;1.75;;;14.90;34.20;;;;;;5099746;28;20079;-74
2022/04/01 11:12:32;;;;;;;2.72;1.55;;;14.60;32.90;;;;;;5093236;28;20060;-75
2022/04/01 11:15:24;;;;;;;4.65;1.85;;;14.20;33.20;;;;;;5107100;28;20276;-73
2022/04/01 11:18:06;;;;;;;4.43;1.70;;;14.60;33.10;;;;;;5093028;28;20070;-75
2022/04/01 11:20:35;;;;;;;1.42;1.33;;;14.10;33.10;;;;;;5101052;28;20131;-70
2022/04/01 11:23:04;;;;;;;3.42;1.80;;;13.90;33.10;;;;;;5109766;28;20044;-71
2022/04/01 11:25:54;;;;;;;5.47;2.25;;;13.40;33.70;;;;;;5094224;28;20043;-73
2022/04/01 11:28:24;;;;;;;3.17;1.40;;;13.30;33.60;;;;;;5092793;28;20048;-72
2022/04/01 11:31:16;;;;;;;2.28;2.08;;;13.50;33.60;;;;;;5092767;28;20372;-73
2022/04/01 11:34:01;;;;;;;2.72;1.85;;;13.40;33.10;;;;;;5096011;28;20044;-74
2022/04/01 11:36:28;;;;;;;2.22;1.58;;;13.10;33.40;;;;;;5100083;28;20048;-72
2022/04/01 11:38:55;;;;;;;2.88;1.60;;;12.80;33.90;;;;;;5093549;28;20044;-73
2022/04/01 11:41:23;;;;;;;6.57;2.10;;;13.20;33.90;;;;;;5092939;28;20457;-73
2022/04/01 11:43:52;;;;;;;3.40;1.42;;;13.80;33.90;;;;;;5092918;28;20051;-73
2022/04/01 11:46:18;;;;;;;2.33;1.65;;;14.80;33.50;;;;;;5094002;28;20127;-74
2022/04/01 11:48:46;;;;;;;3.58;2.40;;;13.90;32.50;;;;;;5093904;28;20097;-73
2022/04/01 11:51:15;;;;;;;1.73;1.50;;;13.70;32.90;;;;;;5092767;28;20062;-74
2022/04/01 11:53:43;;;;;;;2.58;1.60;;;13.50;32.90;;;;;;5092901;28;20072;-73
2022/04/01 11:56:11;;;;;;;1.98;1.88;;;13.90;33.10;;;;;;5093053;28;20048;-73
2022/04/01 11:58:56;;;;;;;6.43;2.10;;;14.30;32.90;;;;;;5094690;28;20087;-74
2022/04/01 12:01:25;;;;;;;3.08;2.35;;;14.70;32.50;;;;;;5093027;28;20094;-72
2022/04/01 12:04:01;;;;;;;1.88;1.52;;;14.70;32.10;;;;;;5109587;28;20108;-72
2022/04/01 12:09:12;;;;;;;2.70;2.13;;;14.50;31.80;;;;;;5111814;28;20062;-73
2022/04/01 12:11:41;;;;;;;3.00;2.70;;;14.40;32.00;;;;;;5096509;28;20063;-75
2022/04/01 12:14:11;;;;;;;1.70;1.52;;;14.40;32.20;;;;;;5097862;28;20047;-75
2022/04/01 12:16:41;;;;;;;3.92;1.58;;;14.20;31.00;;;;;;5111949;28;20051;-74
2022/04/01 12:19:13;;;;;;;1.63;1.17;;;13.80;31.00;;;;;;5097301;28;20083;-74
2022/04/01 12:21:40;;;;;;;;;;;13.90;31.30;;;;;;5113161;28;20075;-73
2022/04/01 12:24:07;;;;;;;1.48;1.35;;;13.90;31.60;;;;;;5107894;28;19920;-73
2022/04/01 12:26:33;;;;;;;1.50;1.38;;;13.20;32.50;;;;;;5116605;28;20055;-73
2022/04/01 12:29:00;;;;;;;1.92;1.73;;;12.50;32.90;;;;;;5115731;28;20447;-73
2022/04/01 12:31:28;;;;;;;1.98;1.73;;;12.00;33.20;;;;;;5116208;28;20635;-73
2022/04/01 12:33:56;;;;;;;2.10;1.90;;;11.90;33.90;;;;;;5116216;28;20105;-73
2022/04/01 12:36:31;;;;;;;2.10;1.52;;;12.20;35.00;;;;;;5115936;28;20090;-73
2022/04/01 12:39:03;;;;;;;2.55;1.67;;;12.40;34.20;;;;;;5116093;28;20043;-73
2022/04/01 12:41:30;;;;;;;2.10;1.65;;;12.50;34.40;;;;;;5116146;28;20079;-72
2022/04/01 12:43:59;;;;;;;2.50;1.73;;;12.80;34.70;;;;;;5114656;28;20094;-73
2022/04/01 12:46:32;;;;;;;2.05;1.20;;;12.60;34.10;;;;;;5104656;28;20092;-73
2022/04/01 12:49:00;;;;;;;1.45;1.35;;;12.60;34.30;;;;;;5115966;28;20050;-73
2022/04/01 12:51:31;;;;;;;3.08;1.60;;;12.40;34.20;;;;;;5116036;28;20075;-74
2022/04/01 12:54:02;;;;;;;1.58;1.35;;;12.20;33.90;;;;;;5115804;28;20065;-72
2022/04/01 12:56:33;;;;;;;3.13;1.67;;;11.90;34.40;;;;;;5115551;28;20417;-73
2022/04/01 12:59:03;;;;;;;7.13;1.90;;;12.10;34.90;;;;;;5115733;28;20474;-74
2022/04/01 13:01:34;;;;;;;2.80;1.88;;;11.90;34.90;;;;;;5115552;28;20281;-74
2022/04/01 13:04:01;;;;;;;3.33;2.72;;;12.00;35.70;;;;;;5116030;28;20086;-73
2022/04/01 13:06:28;;;;;;;8.57;2.33;;;11.80;35.30;;;;;;5095623;28;20144;-74
2022/04/01 13:09:05;;;;;;;3.88;2.10;;;11.80;35.30;;;;;;5095135;28;20161;-73
2022/04/01 13:11:37;;;;;;;5.85;2.40;;;11.60;35.30;;;;;;5094988;28;20153;-74
2022/04/01 13:14:04;;;;;;;3.60;1.63;;;11.80;35.00;;;;;;5094974;28;20113;-72
2022/04/01 13:16:40;;;;;;;2.90;2.10;;;11.70;34.50;;;;;;5094020;28;20052;-73